TAF and METAR

METAR for Yakutsk Airport

UEEE 181230Z 29003MPS CAVOK M05/M15 Q1017 R23L/09//64 NOSIG RMK QFE754
Report created 18. apr 14:30
wind 6 knots from WNW (290°) Clear sky Temperature -5° with dewpoint at -15° (Humidity 45.29%) Pressure 1017 hPa not measurable mm of clear and dry is covering 51% - 100% of runway 23L and friction coefficient is 0.64

TAF for Yakutsk Airport

TAF UEEE 181100Z 1812/1918 28003G10MPS CAVOK
Report created 18. apr 13:00

between 18. apr 14:00 - 19. apr 20:00

wind 6 knots from W (280°) with gusts up to 20 knots Clear sky
Yakutsk Airport in Russian Federation at 103m

Latest 5 airports